createdAt,value
2019-05-05T00:02:21.978Z,61.40
2019-05-05T00:05:12.345Z,61.70
2019-05-05T00:07:39.922Z,62.00
2019-05-05T00:10:10.699Z,62.10
2019-05-05T00:12:56.382Z,62.30
2019-05-05T00:15:41.939Z,62.70
2019-05-05T00:18:09.807Z,62.90
2019-05-05T00:20:37.414Z,63.30
2019-05-05T00:23:05.400Z,63.40
2019-05-05T00:25:34.476Z,63.60
2019-05-05T00:28:02.244Z,63.90
2019-05-05T00:30:30.176Z,64.10
2019-05-05T00:32:57.918Z,65.00
2019-05-05T00:35:25.397Z,64.50
2019-05-05T00:37:54.429Z,64.80
2019-05-05T00:40:22.076Z,65.00
2019-05-05T00:42:50.314Z,65.30
2019-05-05T00:45:17.762Z,65.70
2019-05-05T00:47:54.281Z,65.90
2019-05-05T00:50:22.384Z,66.20
2019-05-05T00:52:49.984Z,66.50
2019-05-05T00:55:17.657Z,66.70
2019-05-05T00:57:45.469Z,67.00
2019-05-05T01:00:25.651Z,67.40
2019-05-05T01:02:54.182Z,67.80
2019-05-05T01:05:41.320Z,68.00
2019-05-05T01:08:14.449Z,68.30
2019-05-05T01:10:44.229Z,68.50
2019-05-05T01:13:11.856Z,68.80
2019-05-05T01:15:39.565Z,69.70
2019-05-05T01:18:07.046Z,69.30
2019-05-05T01:20:34.579Z,69.60
2019-05-05T01:23:04.277Z,70.00
2019-05-05T01:25:34.597Z,70.40
2019-05-05T01:28:05.007Z,70.60
2019-05-05T01:30:35.066Z,70.90
2019-05-05T01:33:09.965Z,71.10
2019-05-05T01:35:37.539Z,71.30
2019-05-05T01:38:10.887Z,71.70
2019-05-05T01:40:45.325Z,71.70
2019-05-05T01:43:14.610Z,72.00
2019-05-05T01:45:42.259Z,72.20
2019-05-05T01:48:09.901Z,72.50
2019-05-05T01:50:37.422Z,72.80
2019-05-05T01:53:05.053Z,73.00
2019-05-05T01:55:34.552Z,73.30
2019-05-05T01:58:04.759Z,73.50
2019-05-05T02:00:34.606Z,73.70
2019-05-05T02:03:01.894Z,74.00
2019-05-05T02:05:29.503Z,74.30
2019-05-05T02:07:57.109Z,74.30
2019-05-05T02:10:25.386Z,74.60
2019-05-05T02:15:35.146Z,75.00
2019-05-05T02:18:04.514Z,75.10
2019-05-05T02:20:41.214Z,75.40
2019-05-05T02:23:10.063Z,75.70
2019-05-05T02:25:37.462Z,76.10
2019-05-05T02:28:05.038Z,76.30
2019-05-05T02:30:40.336Z,76.40
2019-05-05T02:33:10.279Z,76.70
2019-05-05T02:35:37.675Z,76.80
2019-05-05T02:38:06.567Z,77.10
2019-05-05T02:40:35.149Z,77.30
2019-05-05T02:43:05.343Z,77.70
2019-05-05T02:45:41.046Z,77.90
2019-05-05T02:48:10.646Z,78.20
2019-05-05T02:51:02.186Z,78.40
2019-05-05T02:53:38.593Z,78.60
2019-05-05T02:56:11.062Z,78.80
2019-05-05T02:58:39.217Z,78.90
2019-05-05T03:01:26.798Z,79.20
2019-05-05T03:03:55.169Z,79.40
2019-05-05T03:06:23.769Z,79.70
2019-05-05T03:08:54.273Z,80.00
2019-05-05T03:11:23.719Z,80.80
2019-05-05T03:13:54.018Z,80.40
2019-05-05T03:16:24.552Z,80.90
2019-05-05T03:18:54.373Z,81.20
2019-05-05T03:21:24.159Z,81.50
2019-05-05T03:23:51.662Z,81.70
2019-05-05T03:26:19.221Z,81.90
2019-05-05T03:28:57.986Z,81.90
2019-05-05T03:31:26.470Z,82.20
2019-05-05T03:33:55.094Z,82.50
2019-05-05T03:36:24.503Z,82.40
2019-05-05T03:38:53.846Z,82.60
2019-05-05T03:41:34.486Z,82.80
2019-05-05T03:44:09.425Z,82.80
2019-05-05T03:46:37.345Z,82.90
2019-05-05T03:49:05.034Z,83.30
2019-05-05T03:51:34.538Z,83.60
2019-05-05T03:54:04.148Z,83.80
2019-05-05T03:56:31.942Z,84.00
2019-05-05T03:58:59.794Z,84.20
2019-05-05T04:01:36.286Z,84.40
2019-05-05T04:04:24.631Z,84.60
2019-05-05T04:06:54.048Z,84.80
2019-05-05T04:09:24.118Z,84.90
2019-05-05T04:11:53.785Z,85.10
2019-05-05T04:14:21.645Z,85.20
2019-05-05T04:17:04.949Z,85.40
2019-05-05T04:19:34.252Z,85.70
2019-05-05T04:22:04.094Z,85.80
2019-05-05T04:24:31.365Z,85.90
2019-05-05T04:26:58.750Z,86.10
2019-05-05T04:29:26.202Z,86.30
2019-05-05T04:31:54.116Z,86.50
2019-05-05T04:34:23.968Z,86.60
2019-05-05T04:36:51.365Z,86.70
2019-05-05T04:39:19.537Z,87.00
2019-05-05T04:41:47.101Z,87.00
2019-05-05T04:44:16.443Z,87.10
2019-05-05T04:46:45.789Z,87.20
2019-05-05T04:49:26.310Z,87.30
2019-05-05T04:51:55.085Z,87.60
2019-05-05T04:54:30.816Z,88.00
2019-05-05T04:56:58.278Z,88.10
2019-05-05T04:59:25.813Z,88.30
2019-05-05T05:01:56.258Z,88.60
2019-05-05T05:04:33.563Z,88.90
2019-05-05T05:07:00.959Z,89.00
2019-05-05T05:09:28.559Z,89.40
2019-05-05T05:11:56.255Z,89.40
2019-05-05T05:14:24.673Z,89.70
2019-05-05T05:16:54.137Z,90.00
2019-05-05T05:19:24.056Z,90.20
2019-05-05T05:22:00.883Z,90.20
2019-05-05T05:24:20.617Z,90.20
2019-05-05T05:26:48.077Z,90.50
2019-05-05T05:29:15.510Z,90.40
2019-05-05T05:31:44.288Z,90.40
2019-05-05T05:34:12.073Z,90.50
2019-05-05T05:36:40.671Z,90.70
2019-05-05T05:39:14.602Z,90.70
2019-05-05T05:41:45.953Z,90.80
2019-05-05T05:44:33.820Z,90.80
2019-05-05T05:47:19.739Z,90.90
2019-05-05T05:49:56.617Z,90.70
2019-05-05T05:52:24.357Z,90.70
2019-05-05T05:54:53.537Z,90.50
2019-05-05T05:57:21.358Z,90.30
2019-05-05T05:59:49.899Z,90.00
2019-05-05T06:02:18.327Z,89.80
2019-05-05T06:04:45.778Z,89.50
2019-05-05T06:07:14.265Z,89.00
2019-05-05T06:09:43.796Z,88.20
2019-05-05T06:12:14.145Z,87.00
2019-05-05T06:14:44.522Z,86.60
2019-05-05T06:17:13.532Z,86.00
2019-05-05T06:19:41.371Z,85.80
2019-05-05T06:22:08.709Z,85.60
2019-05-05T06:24:36.248Z,85.20
2019-05-05T06:27:03.813Z,85.00
2019-05-05T06:29:31.531Z,84.70
2019-05-05T06:31:59.126Z,84.10
2019-05-05T06:34:26.666Z,84.00
2019-05-05T06:36:54.300Z,84.10
2019-05-05T06:39:21.821Z,83.80
2019-05-05T06:42:01.437Z,83.70
2019-05-05T06:44:38.958Z,83.70
2019-05-05T06:47:13.372Z,83.60
2019-05-05T06:49:40.589Z,83.60
2019-05-05T06:52:08.188Z,83.60
2019-05-05T06:54:35.781Z,83.20
2019-05-05T06:57:04.490Z,82.70
2019-05-05T06:59:34.725Z,81.20
2019-05-05T07:02:04.050Z,80.10
2019-05-05T07:04:33.800Z,79.60
2019-05-05T07:07:01.539Z,79.00
2019-05-05T07:09:29.537Z,78.30
2019-05-05T07:11:59.195Z,77.80
2019-05-05T07:14:28.809Z,76.60
2019-05-05T07:16:56.514Z,76.30
2019-05-05T07:19:24.388Z,75.00
2019-05-05T07:21:53.771Z,74.10
2019-05-05T07:24:23.900Z,73.60
2019-05-05T07:26:54.177Z,73.30
2019-05-05T07:29:23.912Z,72.50
2019-05-05T07:31:51.861Z,72.00
2019-05-05T07:34:20.387Z,70.50
2019-05-05T07:37:11.470Z,70.20
2019-05-05T07:39:39.018Z,69.80
2019-05-05T07:42:07.112Z,69.40
2019-05-05T07:44:34.962Z,68.80
2019-05-05T07:47:05.162Z,68.40
2019-05-05T07:49:33.604Z,68.30
2019-05-05T07:52:01.199Z,67.80
2019-05-05T07:54:28.721Z,67.10
2019-05-05T07:56:56.222Z,66.30
2019-05-05T07:59:23.991Z,65.90
2019-05-05T08:01:51.420Z,65.50
2019-05-05T08:04:19.971Z,65.40
2019-05-05T08:06:47.402Z,65.80
2019-05-05T08:09:14.816Z,65.40
2019-05-05T08:11:43.558Z,65.40
2019-05-05T08:14:14.386Z,65.30
2019-05-05T08:17:03.746Z,64.80
2019-05-05T08:19:51.177Z,64.90
2019-05-05T08:22:19.038Z,64.90
2019-05-05T08:25:06.258Z,64.00
2019-05-05T08:27:40.960Z,63.90
2019-05-05T08:30:34.210Z,63.80
2019-05-05T08:33:04.473Z,63.70
2019-05-05T08:35:31.799Z,63.80
2019-05-05T08:37:59.412Z,64.00
2019-05-05T08:40:27.177Z,63.70
2019-05-05T08:42:54.714Z,63.90
2019-05-05T08:45:26.661Z,64.60
2019-05-05T08:47:54.317Z,65.20
2019-05-05T08:50:26.299Z,65.50
2019-05-05T08:52:54.732Z,66.00
2019-05-05T08:55:24.446Z,66.80
2019-05-05T08:57:51.458Z,67.50
2019-05-05T09:00:19.296Z,68.00
2019-05-05T09:02:46.973Z,68.20
2019-05-05T09:05:15.014Z,68.70
2019-05-05T09:07:44.123Z,69.00
2019-05-05T09:10:11.779Z,69.60
2019-05-05T09:12:39.333Z,70.20
2019-05-05T09:15:08.823Z,70.20
2019-05-05T09:20:30.290Z,71.90
2019-05-05T09:22:57.944Z,72.20
2019-05-05T09:25:41.659Z,72.50
2019-05-05T09:28:18.004Z,72.50
2019-05-05T09:30:47.002Z,72.60
2019-05-05T09:33:17.913Z,72.70
2019-05-05T09:35:44.954Z,72.40
2019-05-05T09:38:14.705Z,72.40
2019-05-05T09:40:43.939Z,72.20
2019-05-05T09:43:11.669Z,72.70
2019-05-05T09:45:39.353Z,73.00
2019-05-05T09:48:07.555Z,73.50
2019-05-05T09:50:37.957Z,73.50
2019-05-05T09:53:05.353Z,73.80
2019-05-05T09:55:33.812Z,74.60
2019-05-05T09:58:04.388Z,76.10
2019-05-05T10:00:34.471Z,75.70
2019-05-05T10:03:03.791Z,76.80
2019-05-05T10:05:31.558Z,77.40
2019-05-05T10:07:59.050Z,77.70
2019-05-05T10:10:26.676Z,78.20
2019-05-05T10:12:54.992Z,78.10
2019-05-05T10:15:22.676Z,78.40
2019-05-05T10:17:50.342Z,78.80
2019-05-05T10:20:18.448Z,79.10
2019-05-05T10:22:46.353Z,79.40
2019-05-05T10:25:53.839Z,79.50
2019-05-05T10:28:21.150Z,79.30
2019-05-05T10:30:48.514Z,79.10
2019-05-05T10:33:16.032Z,79.60
2019-05-05T10:39:33.506Z,77.20
2019-05-05T10:42:04.082Z,75.80
2019-05-05T10:44:33.917Z,75.90
2019-05-05T10:47:04.270Z,75.50
2019-05-05T10:49:33.692Z,74.50
2019-05-05T10:52:03.677Z,74.60
2019-05-05T10:54:41.666Z,73.40
2019-05-05T10:57:01.314Z,73.20
2019-05-05T10:59:29.447Z,73.20
2019-05-05T11:01:57.050Z,73.20
2019-05-05T11:04:24.662Z,73.40
2019-05-05T11:06:54.649Z,73.40
2019-05-05T11:09:24.350Z,73.50
2019-05-05T11:11:52.366Z,73.20
2019-05-05T11:14:20.122Z,73.40
2019-05-05T11:16:47.608Z,73.40
2019-05-05T11:19:15.475Z,73.40
2019-05-05T11:21:43.569Z,72.90
2019-05-05T11:24:11.082Z,72.30
2019-05-05T11:26:38.373Z,71.70
2019-05-05T11:29:05.733Z,71.70
2019-05-05T11:31:34.373Z,71.80
2019-05-05T11:34:08.212Z,71.80
2019-05-05T11:36:46.243Z,71.50
2019-05-05T11:39:14.753Z,71.60
2019-05-05T11:41:44.060Z,70.20
2019-05-05T11:44:11.669Z,69.40
2019-05-05T11:46:39.108Z,68.50
2019-05-05T11:49:07.217Z,68.20
2019-05-05T11:51:34.767Z,68.20
2019-05-05T11:54:08.606Z,68.20
2019-05-05T11:56:33.969Z,67.90
2019-05-05T11:59:03.909Z,66.80
2019-05-05T12:01:32.746Z,65.80
2019-05-05T12:04:03.905Z,64.50
2019-05-05T12:06:31.454Z,63.60
2019-05-05T12:09:01.516Z,62.40
2019-05-05T12:11:30.834Z,60.50
2019-05-05T12:13:59.398Z,59.20
2019-05-05T12:16:31.248Z,58.90
2019-05-05T12:19:00.078Z,58.70
2019-05-05T12:21:27.623Z,58.50
2019-05-05T12:23:55.141Z,58.00
2019-05-05T12:26:44.654Z,57.70
2019-05-05T12:29:21.189Z,57.30
2019-05-05T12:31:51.054Z,57.00
2019-05-05T12:34:18.778Z,57.50
2019-05-05T12:36:46.321Z,57.40
2019-05-05T12:39:14.285Z,56.90
2019-05-05T12:41:42.678Z,56.40
2019-05-05T12:44:14.172Z,55.90
2019-05-05T12:47:07.340Z,55.60
2019-05-05T12:49:35.246Z,55.80
2019-05-05T12:52:04.577Z,55.70
2019-05-05T12:54:33.587Z,55.20
2019-05-05T12:57:04.267Z,54.50
2019-05-05T12:59:33.739Z,54.00
2019-05-05T13:02:03.696Z,54.10
2019-05-05T13:04:30.625Z,54.30
2019-05-05T13:06:58.173Z,54.00
2019-05-05T13:09:25.753Z,53.60
2019-05-05T13:11:54.187Z,53.20
2019-05-05T13:14:21.814Z,52.90
2019-05-05T13:16:52.982Z,52.80
2019-05-05T13:19:43.724Z,51.80
2019-05-05T13:22:20.223Z,51.60
2019-05-05T13:25:08.015Z,51.40
2019-05-05T13:27:38.144Z,51.40
2019-05-05T13:30:06.849Z,51.60
2019-05-05T13:32:35.428Z,51.30
2019-05-05T13:35:04.170Z,51.20
2019-05-05T13:37:33.810Z,51.10
2019-05-05T13:40:01.689Z,51.20
2019-05-05T13:42:29.789Z,51.00
2019-05-05T13:45:05.968Z,50.70
2019-05-05T13:47:34.447Z,50.50
2019-05-05T13:50:10.962Z,51.10
2019-05-05T13:52:39.171Z,51.60
2019-05-05T13:55:07.647Z,51.70
2019-05-05T13:57:35.469Z,52.20
2019-05-05T14:00:03.903Z,52.90
2019-05-05T14:02:33.469Z,53.40
2019-05-05T14:05:01.293Z,53.40
2019-05-05T14:07:29.318Z,53.50
2019-05-05T14:09:59.011Z,53.70
2019-05-05T14:12:26.478Z,54.10
2019-05-05T14:14:54.586Z,54.00
2019-05-05T14:17:22.207Z,53.80
2019-05-05T14:20:01.407Z,53.70
2019-05-05T14:22:19.679Z,53.50
2019-05-05T14:24:51.379Z,52.60
2019-05-05T14:27:23.676Z,52.30
2019-05-05T14:30:09.379Z,51.90
2019-05-05T14:32:37.745Z,50.90
2019-05-05T14:35:29.937Z,50.60
2019-05-05T14:38:00.859Z,50.50
2019-05-05T14:40:28.389Z,50.80
2019-05-05T14:42:56.029Z,51.30
2019-05-05T14:45:23.634Z,51.60
2019-05-05T14:47:53.317Z,50.80
2019-05-05T14:50:21.127Z,50.20
2019-05-05T14:52:53.493Z,49.80
2019-05-05T14:55:22.454Z,49.40
2019-05-05T14:57:50.227Z,49.20
2019-05-05T15:00:20.443Z,49.00
2019-05-05T15:02:48.044Z,48.90
2019-05-05T15:05:33.883Z,49.00
2019-05-05T15:08:19.969Z,49.00
2019-05-05T15:10:58.662Z,48.90
2019-05-05T15:13:27.270Z,48.70
2019-05-05T15:15:54.800Z,48.50
2019-05-05T15:18:24.109Z,48.50
2019-05-05T15:20:54.320Z,48.10
2019-05-05T15:23:23.954Z,48.10
2019-05-05T15:25:53.818Z,48.50
2019-05-05T15:28:21.198Z,48.50
2019-05-05T15:30:49.198Z,48.20
2019-05-05T15:33:19.719Z,48.20
2019-05-05T15:35:47.670Z,48.30
2019-05-05T15:38:15.225Z,48.20
2019-05-05T15:40:44.977Z,47.30
2019-05-05T15:43:14.173Z,47.40
2019-05-05T15:45:43.353Z,47.70
2019-05-05T15:48:14.010Z,47.90
2019-05-05T15:50:43.836Z,47.70
2019-05-05T15:53:11.209Z,47.80
2019-05-05T15:55:38.942Z,48.70
2019-05-05T15:58:06.946Z,48.10
2019-05-05T16:00:34.710Z,47.60
2019-05-05T16:03:04.135Z,48.00
2019-05-05T16:05:31.985Z,47.60
2019-05-05T16:07:59.574Z,47.00
2019-05-05T16:10:27.259Z,46.20
2019-05-05T16:12:54.771Z,44.00
2019-05-05T16:15:53.495Z,42.20
2019-05-05T16:18:32.128Z,42.50
2019-05-05T16:21:09.403Z,42.50
2019-05-05T16:23:43.632Z,42.50
2019-05-05T16:26:11.230Z,43.50
2019-05-05T16:28:38.806Z,44.50
2019-05-05T16:31:06.370Z,44.70
2019-05-05T16:33:33.874Z,42.80
2019-05-05T16:36:02.019Z,39.50
2019-05-05T16:38:29.609Z,37.80
2019-05-05T16:40:57.073Z,37.70
2019-05-05T16:43:24.812Z,39.30
2019-05-05T16:45:53.767Z,40.00
2019-05-05T16:48:23.531Z,41.30
2019-05-05T16:50:50.821Z,42.10
2019-05-05T16:53:36.006Z,42.70
2019-05-05T16:56:05.291Z,42.40
2019-05-05T16:58:33.381Z,40.00
2019-05-05T17:01:00.963Z,40.00
2019-05-05T17:03:28.502Z,41.00
2019-05-05T17:05:58.159Z,41.90
2019-05-05T17:08:25.374Z,42.80
2019-05-05T17:10:56.242Z,43.80
2019-05-05T17:13:34.709Z,45.10
2019-05-05T17:16:21.791Z,43.50
2019-05-05T17:19:13.810Z,41.70
2019-05-05T17:21:58.956Z,41.90
2019-05-05T17:24:26.507Z,42.70
2019-05-05T17:27:13.994Z,43.90
2019-05-05T17:29:43.878Z,45.00
2019-05-05T17:32:11.231Z,46.00
2019-05-05T17:34:38.883Z,46.80
2019-05-05T17:37:06.609Z,45.60
2019-05-05T17:39:37.827Z,45.00
2019-05-05T17:42:40.091Z,45.30
2019-05-05T17:45:34.389Z,45.00
2019-05-05T17:48:09.184Z,45.30
2019-05-05T17:51:11.011Z,45.50
2019-05-05T17:53:49.601Z,45.20
2019-05-05T17:56:17.741Z,43.20
2019-05-05T17:58:45.471Z,41.50
2019-05-05T18:01:14.045Z,40.50
2019-05-05T18:03:43.548Z,41.30
2019-05-05T18:06:30.563Z,42.20
2019-05-05T18:09:02.138Z,43.20
2019-05-05T18:11:50.268Z,44.00
2019-05-05T18:14:24.039Z,44.50
2019-05-05T18:16:54.072Z,44.90
2019-05-05T18:19:21.453Z,45.30
2019-05-05T18:21:49.118Z,45.70
2019-05-05T18:24:17.170Z,46.10
2019-05-05T18:26:44.816Z,46.30
2019-05-05T18:29:14.461Z,46.70
2019-05-05T18:31:41.784Z,47.00
2019-05-05T18:34:09.440Z,47.50
2019-05-05T18:37:24.991Z,47.70
2019-05-05T18:39:48.573Z,48.10
2019-05-05T18:42:19.889Z,48.60
2019-05-05T18:44:50.460Z,49.10
2019-05-05T18:47:19.375Z,49.50
2019-05-05T18:49:46.966Z,50.00
2019-05-05T18:52:14.671Z,50.40
2019-05-05T18:54:43.670Z,50.70
2019-05-05T18:57:11.731Z,51.10
2019-05-05T18:59:39.482Z,51.40
2019-05-05T19:02:27.084Z,53.30
2019-05-05T19:05:17.861Z,53.00
2019-05-05T19:08:11.350Z,53.40
2019-05-05T19:10:39.130Z,53.70
2019-05-05T19:13:07.057Z,54.00
2019-05-05T19:15:35.035Z,54.50
2019-05-05T19:18:04.066Z,54.70
2019-05-05T19:20:51.162Z,55.10
2019-05-05T19:23:18.741Z,55.40
2019-05-05T19:25:46.228Z,55.60
2019-05-05T19:28:14.216Z,56.20
2019-05-05T19:30:44.011Z,56.60
2019-05-05T19:33:13.439Z,56.80
2019-05-05T19:35:44.459Z,57.00
2019-05-05T19:38:10.355Z,57.40
2019-05-05T19:40:37.816Z,57.60
2019-05-05T19:43:05.286Z,58.00
2019-05-05T19:45:34.469Z,58.20
2019-05-05T19:48:05.669Z,58.70
2019-05-05T19:50:35.815Z,59.10
2019-05-05T19:53:04.365Z,59.20
2019-05-05T19:55:36.214Z,59.40
2019-05-05T19:58:03.689Z,59.60
2019-05-05T20:00:31.761Z,59.70
2019-05-05T20:03:04.400Z,59.80
2019-05-05T20:05:28.986Z,60.10
2019-05-05T20:07:57.659Z,60.40
2019-05-05T20:10:25.311Z,60.70
2019-05-05T20:12:54.020Z,60.70
2019-05-05T20:15:33.813Z,60.80
2019-05-05T20:18:01.516Z,60.90
2019-05-05T20:20:29.256Z,61.00
2019-05-05T20:22:56.930Z,61.20
2019-05-05T20:25:24.488Z,61.30
2019-05-05T20:27:55.796Z,62.00
2019-05-05T20:30:21.697Z,61.50
2019-05-05T20:32:57.130Z,61.60
2019-05-05T20:35:38.032Z,61.70
2019-05-05T20:38:11.175Z,61.80
2019-05-05T20:40:40.930Z,62.50
2019-05-05T20:43:08.299Z,62.60
2019-05-05T20:45:36.254Z,62.20
2019-05-05T20:48:04.525Z,62.40
2019-05-05T20:50:34.256Z,62.60
2019-05-05T20:53:01.778Z,62.80
2019-05-05T20:55:30.763Z,63.10
2019-05-05T20:57:58.328Z,63.20
2019-05-05T21:00:25.810Z,63.50
2019-05-05T21:02:53.918Z,63.70
2019-05-05T21:05:24.140Z,63.90
2019-05-05T21:07:51.527Z,64.40
2019-05-05T21:10:19.186Z,64.20
2019-05-05T21:12:47.012Z,64.40
2019-05-05T21:15:14.551Z,64.50
2019-05-05T21:17:42.089Z,64.70
2019-05-05T21:20:10.849Z,64.90
2019-05-05T21:22:56.183Z,65.00
2019-05-05T21:25:26.178Z,65.00
2019-05-05T21:27:53.577Z,65.20
2019-05-05T21:30:23.702Z,65.30
2019-05-05T21:32:51.065Z,65.40
2019-05-05T21:35:18.870Z,65.50
2019-05-05T21:37:46.236Z,65.80
2019-05-05T21:40:14.518Z,65.90
2019-05-05T21:42:44.271Z,66.10
2019-05-05T21:45:13.369Z,66.20
2019-05-05T21:47:41.029Z,66.40
2019-05-05T21:50:10.542Z,66.50
2019-05-05T21:52:43.590Z,66.70
2019-05-05T21:55:34.262Z,66.90
2019-05-05T21:58:24.708Z,67.00
2019-05-05T22:01:08.414Z,67.10
2019-05-05T22:03:37.810Z,67.40
2019-05-05T22:06:05.955Z,67.50
2019-05-05T22:08:34.870Z,67.70
2019-05-05T22:11:03.905Z,67.80
2019-05-05T22:13:31.687Z,68.00
2019-05-05T22:16:00.122Z,68.20
2019-05-05T22:18:28.244Z,68.30
2019-05-05T22:21:04.301Z,68.50
2019-05-05T22:23:31.500Z,68.70
2019-05-05T22:26:00.095Z,68.90
2019-05-05T22:28:27.700Z,69.20
2019-05-05T22:30:57.797Z,69.30
2019-05-05T22:33:25.383Z,69.50
2019-05-05T22:35:54.737Z,69.60
2019-05-05T22:38:41.849Z,69.80
2019-05-05T22:41:09.206Z,70.10
2019-05-05T22:43:36.665Z,70.20
2019-05-05T22:46:04.182Z,71.10
2019-05-05T22:48:31.755Z,70.70
2019-05-05T22:50:59.530Z,70.80
2019-05-05T22:53:27.178Z,71.10
2019-05-05T22:55:54.801Z,71.40
2019-05-05T22:58:24.096Z,71.70
2019-05-05T23:00:51.711Z,71.80
2019-05-05T23:03:34.608Z,72.10
2019-05-05T23:06:06.284Z,72.30
2019-05-05T23:08:35.043Z,72.50
2019-05-05T23:11:04.073Z,72.70
2019-05-05T23:13:33.614Z,73.10
2019-05-05T23:16:09.156Z,73.20
2019-05-05T23:18:36.574Z,73.50
2019-05-05T23:21:24.674Z,73.60
2019-05-05T23:24:14.191Z,73.80
2019-05-05T23:26:44.439Z,74.00
2019-05-05T23:29:15.019Z,74.30
2019-05-05T23:31:44.442Z,74.40
2019-05-05T23:34:12.143Z,74.70
2019-05-05T23:36:39.662Z,75.00
2019-05-05T23:39:07.150Z,75.40
2019-05-05T23:41:35.634Z,75.70
2019-05-05T23:44:03.786Z,76.00
2019-05-05T23:46:31.266Z,76.20
2019-05-05T23:48:58.810Z,76.50
2019-05-05T23:51:26.298Z,77.00
2019-05-05T23:53:55.065Z,77.10
2019-05-05T23:56:24.050Z,77.40
2019-05-05T23:58:51.970Z,77.60
